Time;durP1;ratioP1;P1;durP2;ratioP2;P2;SDS_P1;SDS_P2;PMS_P1;PMS_P2;Temp;Humidity;BMP_temperature;BMP_pressure;BME280_temperature;BME280_humidity;BME280_pressure;Samples;Min_cycle;Max_cycle;Signal;HPM_P1;HPM_P2
2022/12/05 00:00:55;;;;;;;10.50;5.72;;;;;;;6.07;100.00;101091.34;5091726;28;20032;-68
2022/12/05 00:03:21;;;;;;;9.35;5.53;;;;;;;5.96;100.00;101069.75;5093374;28;20031;-73
2022/12/05 00:05:47;;;;;;;9.07;5.53;;;;;;;6.05;100.00;101087.88;5093474;28;20020;-73
2022/12/05 00:08:13;;;;;;;9.15;5.80;;;;;;;6.06;100.00;101081.63;5093575;28;20031;-73
2022/12/05 00:10:38;;;;;;;8.40;5.55;;;;;;;6.06;100.00;101082.47;5093317;28;20027;-73
2022/12/05 00:13:04;;;;;;;9.57;6.03;;;;;;;6.00;100.00;101071.34;5093784;28;20103;-73
2022/12/05 00:15:30;;;;;;;11.45;6.68;;;;;;;5.93;100.00;101054.84;5091857;28;20032;-73
2022/12/05 00:17:56;;;;;;;10.93;6.05;;;;;;;6.07;100.00;101080.69;5093437;28;20028;-73
2022/12/05 00:20:21;;;;;;;9.50;5.75;;;;;;;6.06;100.00;101085.13;5091844;28;20023;-73
2022/12/05 00:22:47;;;;;;;10.48;5.63;;;;;;;6.08;100.00;101085.06;5095405;28;20028;-73
2022/12/05 00:25:12;;;;;;;11.10;6.22;;;;;;;6.05;100.00;101080.78;5093200;28;20457;-73
2022/12/05 00:27:38;;;;;;;8.55;5.53;;;;;;;5.90;100.00;101060.31;5093169;28;20091;-73
2022/12/05 00:30:04;;;;;;;10.63;6.22;;;;;;;5.97;100.00;101077.66;5093255;28;20520;-73
2022/12/05 00:32:30;;;;;;;8.73;5.63;;;;;;;6.02;100.00;101082.72;5093107;28;20039;-73
2022/12/05 00:34:56;;;;;;;9.43;5.68;;;;;;;5.98;100.00;101074.09;5093142;28;20034;-73
2022/12/05 00:37:21;;;;;;;7.47;4.72;;;;;;;5.92;100.00;101078.88;5092892;28;20028;-73
2022/12/05 00:39:47;;;;;;;7.32;5.03;;;;;;;6.02;100.00;101088.06;5093262;28;20345;-73
2022/12/05 00:42:12;;;;;;;9.57;5.90;;;;;;;5.89;100.00;101068.41;5092809;28;20052;-73
2022/12/05 00:44:38;;;;;;;10.65;5.53;;;;;;;6.06;100.00;101094.94;5092612;28;20472;-73
2022/12/05 00:47:03;;;;;;;10.93;6.45;;;;;;;6.08;100.00;101101.03;5092937;28;20066;-73
2022/12/05 00:49:28;;;;;;;9.77;6.00;;;;;;;6.02;100.00;101088.94;5092491;28;20353;-73
2022/12/05 00:51:54;;;;;;;8.60;5.22;;;;;;;6.05;100.00;101088.75;5092183;28;20424;-73
2022/12/05 00:54:19;;;;;;;12.00;5.70;;;;;;;6.06;100.00;101092.28;5089967;28;20025;-73
2022/12/05 00:56:45;;;;;;;9.93;5.97;;;;;;;6.08;100.00;101107.22;5108197;28;20111;-73
2022/12/05 00:59:18;;;;;;;11.10;6.38;;;;;;;6.08;100.00;101099.22;5092651;28;20038;-74
2022/12/05 01:01:46;;;;;;;13.15;7.30;;;;;;;6.08;100.00;101101.91;5090792;28;20038;-73
2022/12/05 01:04:18;;;;;;;9.10;5.90;;;;;;;5.99;100.00;101082.91;5092600;28;20074;-73
2022/12/05 01:06:44;;;;;;;9.85;5.85;;;;;;;6.09;100.00;101095.63;5092514;28;20480;-73
2022/12/05 01:09:12;;;;;;;10.52;6.05;;;;;;;6.08;100.00;101090.38;5092102;28;20028;-73
2022/12/05 01:11:37;;;;;;;12.05;5.60;;;;;;;6.11;100.00;101101.72;5091981;28;20028;-73
2022/12/05 01:14:04;;;;;;;8.68;5.38;;;;;;;6.11;100.00;101099.06;5092006;28;20466;-73
2022/12/05 01:16:33;;;;;;;9.90;6.07;;;;;;;5.97;100.00;101077.66;5091690;28;20023;-73
2022/12/05 01:19:03;;;;;;;7.35;5.13;;;;;;;6.09;100.00;101105.41;5092225;28;20046;-74
2022/12/05 01:21:28;;;;;;;8.95;5.43;;;;;;;5.93;100.00;101084.13;5091609;28;20054;-74
2022/12/05 01:23:54;;;;;;;9.00;5.80;;;;;;;6.05;100.00;101099.41;5091978;28;20577;-73
2022/12/05 01:26:20;;;;;;;8.90;5.07;;;;;;;6.02;100.00;101099.56;5091958;28;20031;-74
2022/12/05 01:28:47;;;;;;;9.07;5.65;;;;;;;6.02;100.00;101099.56;5091533;28;20376;-74
2022/12/05 01:31:24;;;;;;;11.52;5.93;;;;;;;6.00;100.00;101092.63;5091906;28;20046;-74
2022/12/05 01:33:51;;;;;;;10.98;6.07;;;;;;;5.94;100.00;101080.50;5087932;28;20028;-74
2022/12/05 01:36:17;;;;;;;7.95;5.28;;;;;;;6.01;100.00;101086.34;5091588;28;20051;-74
2022/12/05 01:38:42;;;;;;;11.25;5.43;;;;;;;6.03;100.00;101090.63;5091476;28;20048;-74
2022/12/05 01:41:12;;;;;;;9.02;5.90;;;;;;;5.96;100.00;101078.63;5091754;28;20036;-73
2022/12/05 01:43:56;;;;;;;12.25;6.10;;;;;;;6.05;100.00;101088.75;5091025;28;20133;-73
2022/12/05 01:46:23;;;;;;;8.90;5.45;;;;;;;6.07;100.00;101088.66;5089956;28;20354;-73
2022/12/05 01:48:52;;;;;;;6.78;5.03;;;;;;;6.05;100.00;101082.56;5091422;28;20031;-74
2022/12/05 01:51:18;;;;;;;10.73;5.97;;;;;;;6.02;100.00;101077.41;5091046;28;20036;-73
2022/12/05 01:53:44;;;;;;;10.27;5.82;;;;;;;6.02;100.00;101072.09;5090958;28;20036;-73
2022/12/05 01:56:12;;;;;;;10.43;5.50;;;;;;;6.04;100.00;101062.22;5107280;28;20024;-73
2022/12/05 01:58:40;;;;;;;6.78;4.47;;;;;;;6.04;100.00;101060.41;5091137;28;20284;-74
2022/12/05 02:01:05;;;;;;;8.50;5.90;;;;;;;6.08;100.00;101064.63;5091202;28;20043;-73
2022/12/05 02:03:31;;;;;;;7.75;4.90;;;;;;;6.05;100.00;101058.59;5090187;28;20028;-73
2022/12/05 02:05:58;;;;;;;8.98;5.15;;;;;;;6.01;100.00;101038.44;5089493;28;20035;-73
2022/12/05 02:08:27;;;;;;;8.07;5.20;;;;;;;5.87;100.00;101017.91;5090956;28;20131;-73
2022/12/05 02:10:55;;;;;;;9.93;5.57;;;;;;;6.02;100.00;101040.13;5081215;28;20034;-73
2022/12/05 02:13:42;;;;;;;8.18;5.25;;;;;;;6.01;100.00;101044.63;5106222;28;20383;-73
2022/12/05 02:16:20;;;;;;;8.25;5.18;;;;;;;6.00;100.00;101045.53;5088681;28;20032;-73
2022/12/05 02:19:16;;;;;;;9.60;6.30;;;;;;;5.99;100.00;101041.19;5088137;28;20023;-68
2022/12/05 02:22:06;;;;;;;11.38;6.15;;;;;;;6.01;100.00;101033.97;5088763;28;20084;-69
2022/12/05 02:24:50;;;;;;;11.65;6.57;;;;;;;5.96;100.00;101033.38;5088571;28;20036;-69
2022/12/05 02:27:50;;;;;;;11.25;6.18;;;;;;;5.97;100.00;101052.88;5088857;28;20028;-69
2022/12/05 02:30:23;;;;;;;9.88;5.95;;;;;;;5.94;100.00;101055.69;5088722;28;20028;-69
2022/12/05 02:33:03;;;;;;;8.65;5.05;;;;;;;5.93;100.00;101051.34;5086709;28;20169;-69
2022/12/05 02:35:58;;;;;;;9.82;6.18;;;;;;;5.91;100.00;101054.09;5104009;28;20676;-69
2022/12/05 02:38:53;;;;;;;8.32;5.05;;;;;;;5.94;100.00;101058.38;5087742;28;20108;-69
2022/12/05 02:41:31;;;;;;;9.13;5.40;;;;;;;5.88;100.00;101053.38;5083674;28;20039;-69
2022/12/05 02:44:04;;;;;;;11.60;5.82;;;;;;;5.90;100.00;101059.50;5088560;28;20539;-69
2022/12/05 02:46:32;;;;;;;8.50;5.47;;;;;;;5.86;100.00;101064.13;5087894;28;20016;-69
2022/12/05 02:49:03;;;;;;;8.75;6.38;;;;;;;5.80;100.00;101039.63;5088438;28;20256;-69
2022/12/05 02:51:34;;;;;;;9.57;5.57;;;;;;;5.88;100.00;101059.56;5084899;28;20028;-69
2022/12/05 02:54:06;;;;;;;9.20;5.40;;;;;;;5.92;100.00;101065.56;5089092;28;20142;-69
2022/12/05 02:56:34;;;;;;;8.02;5.07;;;;;;;5.72;100.00;101037.41;5087950;28;20031;-69
2022/12/05 02:59:00;;;;;;;8.40;5.43;;;;;;;5.87;100.00;101060.50;5087089;28;20039;-69
2022/12/05 03:01:29;;;;;;;8.35;5.43;;;;;;;5.82;100.00;101051.94;5087859;28;20026;-69
2022/12/05 03:03:56;;;;;;;8.80;5.40;;;;;;;5.86;100.00;101064.13;5088004;28;20038;-69
2022/12/05 03:06:36;;;;;;;10.35;5.97;;;;;;;5.90;100.00;101060.31;5087455;28;20031;-69
2022/12/05 03:09:07;;;;;;;9.65;5.63;;;;;;;5.88;100.00;101070.22;5087941;28;20035;-69
2022/12/05 03:11:39;;;;;;;8.25;4.97;;;;;;;5.76;100.00;101048.72;5087879;28;20032;-69
2022/12/05 03:14:09;;;;;;;8.18;5.50;;;;;;;5.81;100.00;101054.66;5087725;28;20035;-69
2022/12/05 03:16:41;;;;;;;7.25;4.85;;;;;;;5.86;100.00;101066.78;5087585;28;20047;-69
2022/12/05 03:19:14;;;;;;;7.95;5.10;;;;;;;5.81;100.00;101071.50;5088098;28;20027;-69
2022/12/05 03:22:01;;;;;;;7.93;4.70;;;;;;;5.77;100.00;101069.09;5086602;28;20032;-69
2022/12/05 03:24:27;;;;;;;8.82;5.05;;;;;;;5.72;100.00;101065.81;5089374;28;20032;-69
2022/12/05 03:27:05;;;;;;;7.95;4.68;;;;;;;5.85;100.00;101090.81;5090479;28;20032;-69
2022/12/05 03:29:55;;;;;;;7.85;4.85;;;;;;;5.86;100.00;101090.75;5087641;28;20541;-69
2022/12/05 03:32:48;;;;;;;7.60;4.55;;;;;;;5.76;100.00;101062.03;5087412;28;20036;-69
2022/12/05 03:35:23;;;;;;;8.57;4.63;;;;;;;5.90;100.00;101091.44;5088279;28;20676;-69
2022/12/05 03:38:08;;;;;;;6.85;4.25;;;;;;;5.86;100.00;101093.41;5087920;28;20738;-69
2022/12/05 03:40:43;;;;;;;8.73;4.28;;;;;;;5.89;100.00;101095.03;5088524;28;20027;-70
2022/12/05 03:43:45;;;;;;;6.43;4.05;;;;;;;5.87;100.00;101092.44;5085520;28;20059;-69
2022/12/05 03:46:22;;;;;;;8.25;4.30;;;;;;;5.79;100.00;101076.03;5087894;28;20368;-69
2022/12/05 03:48:54;;;;;;;7.60;4.68;;;;;;;5.89;100.00;101098.56;5103711;28;20028;-69
2022/12/05 03:51:25;;;;;;;6.35;4.20;;;;;;;5.86;100.00;101090.75;5087674;28;20039;-69
2022/12/05 03:53:58;;;;;;;7.30;4.38;;;;;;;5.82;100.00;101086.53;5087850;28;20040;-69
2022/12/05 03:56:36;;;;;;;7.03;4.30;;;;;;;5.89;100.00;101095.91;5103159;28;20028;-69
2022/12/05 03:59:29;;;;;;;7.50;4.70;;;;;;;5.93;100.00;101093.94;5088004;28;20051;-69
2022/12/05 04:02:00;;;;;;;8.02;4.45;;;;;;;5.93;100.00;101093.94;5087688;28;20559;-69
2022/12/05 04:04:32;;;;;;;6.80;4.07;;;;;;;5.87;100.00;101078.31;5083722;28;20174;-69
2022/12/05 04:07:03;;;;;;;7.28;4.63;;;;;;;5.78;100.00;101063.69;5087519;28;20023;-69
2022/12/05 04:09:34;;;;;;;6.20;4.07;;;;;;;5.96;100.00;101089.28;5087863;28;20488;-69
2022/12/05 04:12:03;;;;;;;5.40;3.85;;;;;;;5.95;100.00;101087.56;5088228;28;20473;-69
2022/12/05 04:14:43;;;;;;;7.72;4.53;;;;;;;5.83;100.00;101060.75;5087184;28;20051;-69
2022/12/05 04:17:20;;;;;;;10.02;4.95;;;;;;;5.96;100.00;101081.28;5088776;28;20032;-69
2022/12/05 04:22:36;;;;;;;6.93;4.50;;;;;;;5.92;100.00;101077.09;5087411;28;20097;-69
2022/12/05 04:28:15;;;;;;;7.72;4.78;;;;;;;6.00;100.00;101082.81;5088855;28;20039;-69
2022/12/05 04:30:40;;;;;;;8.20;4.82;;;;;;;5.99;100.00;101075.78;5091044;28;20032;-69
2022/12/05 04:33:13;;;;;;;7.93;4.90;;;;;;;5.98;100.00;101090.06;5089864;28;20040;-69
2022/12/05 04:36:02;;;;;;;6.65;4.65;;;;;;;5.96;100.00;101075.97;5090869;28;20048;-69
2022/12/05 04:38:36;;;;;;;8.73;4.97;;;;;;;5.96;100.00;101075.97;5089247;28;20087;-69
2022/12/05 04:41:06;;;;;;;7.18;4.63;;;;;;;5.95;100.00;101081.38;5093126;28;20038;-69
2022/12/05 04:43:38;;;;;;;6.82;4.65;;;;;;;5.95;100.00;101070.72;5089112;28;20036;-69
2022/12/05 04:46:08;;;;;;;7.00;4.85;;;;;;;5.98;100.00;101079.41;5090617;28;20486;-69
2022/12/05 04:48:38;;;;;;;9.43;4.97;;;;;;;5.98;100.00;101074.09;5090428;28;20626;-69
2022/12/05 04:51:08;;;;;;;6.15;4.35;;;;;;;5.98;100.00;101070.53;5090945;28;20042;-69
2022/12/05 04:53:35;;;;;;;9.45;4.90;;;;;;;5.95;100.00;101073.38;5090532;28;20047;-69
2022/12/05 04:56:03;;;;;;;6.43;4.68;;;;;;;5.99;100.00;101085.56;5090583;28;20032;-69
2022/12/05 04:58:30;;;;;;;7.22;5.03;;;;;;;5.96;100.00;101086.59;5088656;28;20028;-69
2022/12/05 05:01:08;;;;;;;6.70;5.25;;;;;;;5.97;100.00;101090.13;5090492;28;21783;-69
2022/12/05 05:03:41;;;;;;;8.00;4.43;;;;;;;5.83;100.00;101064.28;5090112;28;20077;-69
2022/12/05 05:06:09;;;;;;;8.07;5.00;;;;;;;5.93;100.00;101077.97;5090458;28;20504;-69
2022/12/05 05:08:34;;;;;;;6.68;4.50;;;;;;;5.94;100.00;101082.31;5089951;28;20373;-69
2022/12/05 05:11:24;;;;;;;8.43;4.80;;;;;;;5.91;100.00;101082.50;5090323;28;20104;-69
2022/12/05 05:13:50;;;;;;;5.47;4.25;;;;;;;5.97;100.00;101083.00;5091383;28;20019;-69
2022/12/05 05:16:22;;;;;;;6.97;4.65;;;;;;;5.92;100.00;101086.88;5091778;27;20453;-69
2022/12/05 05:18:49;;;;;;;9.15;4.72;;;;;;;5.87;100.00;101078.31;5090341;28;20032;-69
2022/12/05 05:21:24;;;;;;;9.45;5.80;;;;;;;5.94;100.00;101104.47;5106250;28;20035;-69
2022/12/05 05:23:50;;;;;;;9.30;5.88;;;;;;;5.94;100.00;101107.13;5088962;28;20036;-69
2022/12/05 05:26:16;;;;;;;6.72;4.57;;;;;;;5.92;100.00;101103.72;5090099;28;20071;-69
2022/12/05 05:28:42;;;;;;;5.03;3.83;;;;;;;5.81;100.00;101078.59;5088393;28;20028;-69
2022/12/05 05:31:07;;;;;;;6.75;4.45;;;;;;;5.88;100.00;101086.19;5092283;28;20036;-69
2022/12/05 05:33:34;;;;;;;8.50;4.95;;;;;;;5.96;100.00;101099.06;5089499;28;20024;-69
2022/12/05 05:36:10;;;;;;;6.28;4.25;;;;;;;5.95;100.00;101097.34;5089837;28;20058;-69
2022/12/05 05:38:44;;;;;;;7.50;4.65;;;;;;;5.95;100.00;101092.88;5089465;28;20385;-69
2022/12/05 05:41:18;;;;;;;8.48;4.70;;;;;;;5.67;100.00;101044.78;5089919;28;20047;-69
2022/12/05 05:43:45;;;;;;;6.15;4.38;;;;;;;5.97;100.00;101098.97;5089256;28;20059;-69
2022/12/05 05:46:12;;;;;;;5.82;4.53;;;;;;;5.82;100.00;101072.38;5089426;28;20051;-69
2022/12/05 05:48:37;;;;;;;7.18;4.82;;;;;;;5.82;100.00;101072.38;5089451;28;20031;-69
2022/12/05 05:51:05;;;;;;;8.63;5.18;;;;;;;5.90;100.00;101080.78;5088246;28;20391;-69
2022/12/05 05:53:31;;;;;;;7.95;5.35;;;;;;;5.94;100.00;101083.16;5089495;28;20036;-69
2022/12/05 05:55:57;;;;;;;7.35;4.97;;;;;;;5.83;100.00;101072.28;5087892;28;20036;-69
2022/12/05 05:58:22;;;;;;;7.82;5.00;;;;;;;5.78;100.00;101065.47;5087858;28;20028;-69
2022/12/05 06:00:48;;;;;;;7.00;5.32;;;;;;;5.70;100.00;101039.28;5089280;28;20419;-69
2022/12/05 06:03:13;;;;;;;11.20;6.25;;;;;;;5.96;100.00;101081.28;5089261;28;20582;-69
2022/12/05 06:05:38;;;;;;;8.55;5.78;;;;;;;5.85;100.00;101078.38;5090628;28;20028;-69
2022/12/05 06:08:04;;;;;;;8.00;5.30;;;;;;;5.98;100.00;101094.50;5088907;28;20039;-69
2022/12/05 06:10:30;;;;;;;10.30;4.90;;;;;;;5.96;100.00;101091.94;5088761;28;20146;-69
2022/12/05 06:12:56;;;;;;;6.97;4.85;;;;;;;5.88;100.00;101078.22;5088278;28;20027;-69
2022/12/05 06:15:23;;;;;;;9.80;5.38;;;;;;;5.91;100.00;101080.69;5087048;28;20035;-69
2022/12/05 06:17:48;;;;;;;7.15;4.65;;;;;;;5.85;100.00;101078.38;5086707;28;20027;-69
2022/12/05 06:20:14;;;;;;;8.48;5.55;;;;;;;5.78;100.00;101065.47;5089922;28;20031;-69
2022/12/05 06:22:39;;;;;;;8.57;5.32;;;;;;;5.94;100.00;101096.47;5088574;28;20024;-69
2022/12/05 06:25:06;;;;;;;8.80;4.95;;;;;;;5.93;100.00;101091.28;5088432;28;20028;-69
2022/12/05 06:27:32;;;;;;;9.82;5.50;;;;;;;5.93;100.00;101093.94;5088566;28;20020;-69
2022/12/05 06:29:57;;;;;;;7.93;5.45;;;;;;;5.96;100.00;101096.38;5083212;28;20081;-69
2022/12/05 06:32:23;;;;;;;8.23;4.75;;;;;;;5.92;100.00;101102.84;5086931;28;20081;-69
2022/12/05 06:34:48;;;;;;;7.90;5.30;;;;;;;5.93;100.00;101099.25;5088529;28;20032;-69
2022/12/05 06:37:14;;;;;;;7.78;5.15;;;;;;;5.78;100.00;101082.31;5088580;28;20055;-69
2022/12/05 06:39:39;;;;;;;7.72;5.68;;;;;;;5.84;100.00;101095.28;5087056;28;20043;-70
2022/12/05 06:42:05;;;;;;;8.70;5.88;;;;;;;5.91;100.00;101102.00;5086764;28;20110;-69
2022/12/05 06:44:30;;;;;;;7.20;5.03;;;;;;;5.95;100.00;101095.56;5087843;28;20016;-69
2022/12/05 06:46:57;;;;;;;9.93;5.18;;;;;;;6.01;100.00;101108.53;5087603;28;20044;-69
2022/12/05 06:49:25;;;;;;;6.28;4.47;;;;;;;6.05;100.00;101123.38;5088513;28;20039;-69
2022/12/05 06:51:52;;;;;;;8.50;5.13;;;;;;;5.96;100.00;101112.38;5088062;28;20685;-69
2022/12/05 06:54:18;;;;;;;8.75;5.72;;;;;;;6.07;100.00;101123.28;5088279;28;20032;-69
2022/12/05 06:56:43;;;;;;;8.48;5.68;;;;;;;6.06;100.00;101122.41;5087880;28;20130;-69
2022/12/05 06:59:09;;;;;;;7.47;5.03;;;;;;;5.97;100.00;101106.94;5088071;28;20039;-69
2022/12/05 07:01:40;;;;;;;7.22;4.80;;;;;;;6.17;100.00;101114.69;5087795;28;20028;-69
2022/12/05 07:04:15;;;;;;;9.93;5.20;;;;;;;6.05;100.00;101101.19;5086657;28;20047;-69
2022/12/05 07:06:42;;;;;;;7.63;4.57;;;;;;;6.17;100.00;101117.34;5087866;28;20106;-69
2022/12/05 07:09:09;;;;;;;6.90;4.57;;;;;;;6.24;100.00;101115.19;5087888;28;20496;-69
2022/12/05 07:11:35;;;;;;;6.32;4.55;;;;;;;6.16;100.00;101086.31;5087937;28;20063;-69
2022/12/05 07:14:02;;;;;;;7.43;5.00;;;;;;;6.29;100.00;101113.13;5087985;28;20127;-69
2022/12/05 07:16:28;;;;;;;7.90;5.38;;;;;;;6.20;100.00;101103.88;5087745;28;20464;-69
2022/12/05 07:18:53;;;;;;;6.90;4.22;;;;;;;6.32;100.00;101112.97;5087709;28;20039;-69
2022/12/05 07:21:20;;;;;;;8.43;5.03;;;;;;;6.17;100.00;101082.75;5088170;28;20036;-69
2022/12/05 07:23:47;;;;;;;7.70;4.50;;;;;;;6.26;100.00;101102.66;5085291;28;20063;-69
2022/12/05 07:26:15;;;;;;;7.07;4.65;;;;;;;6.25;100.00;101112.44;5087575;28;20055;-69
2022/12/05 07:28:40;;;;;;;6.32;4.75;;;;;;;6.19;100.00;101093.31;5081502;28;20307;-69
2022/12/05 07:31:09;;;;;;;5.75;4.10;;;;;;;6.40;100.00;101138.22;5084730;28;20040;-70
2022/12/05 07:33:35;;;;;;;6.80;4.15;;;;;;;6.44;100.00;101126.41;5084298;28;20028;-69
2022/12/05 07:36:06;;;;;;;7.18;5.03;;;;;;;6.50;100.00;101139.38;5083706;28;20020;-69
2022/12/05 07:38:32;;;;;;;8.27;4.90;;;;;;;6.50;100.00;101127.84;5084858;28;20080;-69
2022/12/05 07:40:58;;;;;;;7.88;4.97;;;;;;;6.47;100.00;101106.72;5079127;28;20040;-69
2022/12/05 07:43:24;;;;;;;6.25;4.68;;;;;;;6.49;100.00;101111.00;5101895;28;20154;-69
2022/12/05 07:45:49;;;;;;;7.53;4.68;;;;;;;6.62;100.00;101132.47;5080379;28;20448;-68
2022/12/05 07:48:15;;;;;;;6.78;4.88;;;;;;;6.60;100.00;101124.56;5082371;28;20032;-69
2022/12/05 07:50:41;;;;;;;6.97;4.22;;;;;;;6.68;100.00;101127.63;5085110;28;20032;-68
2022/12/05 07:53:06;;;;;;;7.65;4.80;;;;;;;6.61;100.00;101115.63;5082037;28;20039;-69
2022/12/05 07:55:32;;;;;;;7.82;5.40;;;;;;;6.63;100.00;101105.75;5086567;28;20036;-69
2022/12/05 07:57:57;;;;;;;6.25;4.72;;;;;;;6.77;100.00;101137.75;5086572;28;20028;-68
2022/12/05 08:00:22;;;;;;;6.35;4.53;;;;;;;6.72;100.00;101121.19;5088315;28;20123;-69
2022/12/05 08:02:48;;;;;;;5.72;4.70;;;;;;;6.74;100.00;101121.09;5088961;28;20107;-68
2022/12/05 08:05:14;;;;;;;6.90;4.95;;;;;;;6.77;100.00;101136.88;5090898;28;20089;-69
2022/12/05 08:07:40;;;;;;;12.98;7.00;;;;;;;6.81;100.00;101149.94;5089970;28;20088;-69
2022/12/05 08:10:06;;;;;;;17.77;10.20;;;;;;;6.85;100.00;101145.31;5088734;28;20042;-69
2022/12/05 08:12:31;;;;;;;10.43;5.97;;;;;;;6.86;100.00;101152.34;5089234;28;20063;-69
2022/12/05 08:14:57;;;;;;;8.43;4.63;;;;;;;6.90;100.00;101144.09;5090534;28;20048;-69
2022/12/05 08:17:22;;;;;;;6.55;4.60;;;;;;;6.95;100.00;101142.00;5092257;28;20073;-69
2022/12/05 08:19:47;;;;;;;6.45;4.45;;;;;;;6.91;100.00;101148.44;5091273;28;20023;-69
2022/12/05 08:22:13;;;;;;;8.00;5.07;;;;;;;6.92;100.00;101155.53;5089610;28;20024;-69
2022/12/05 08:24:38;;;;;;;7.75;5.07;;;;;;;6.85;100.00;101132.84;5089298;28;20058;-69
2022/12/05 08:27:04;;;;;;;6.28;4.28;;;;;;;6.90;100.00;101149.41;5091498;28;20043;-69
2022/12/05 08:29:29;;;;;;;7.28;5.00;;;;;;;7.02;100.00;101168.31;5090174;28;20123;-69
2022/12/05 08:31:55;;;;;;;7.00;4.50;;;;;;;7.07;100.00;101141.25;5090231;28;20141;-69
2022/12/05 08:34:21;;;;;;;7.97;5.30;;;;;;;7.12;100.00;101154.31;5089073;28;20043;-69
2022/12/05 08:36:46;;;;;;;7.90;4.82;;;;;;;7.15;100.00;101140.78;5090575;28;20028;-69
2022/12/05 08:39:15;;;;;;;7.38;5.05;;;;;;;7.21;100.00;101142.22;5089767;28;20082;-69
2022/12/05 08:41:42;;;;;;;6.10;4.78;;;;;;;7.16;100.00;101123.00;5088664;28;20553;-69
2022/12/05 08:44:14;;;;;;;8.18;4.75;;;;;;;7.22;100.00;101135.97;5091780;28;20393;-69
2022/12/05 08:46:41;;;;;;;7.20;4.53;;;;;;;7.35;100.00;101147.59;5088421;28;20457;-69
2022/12/05 08:49:07;;;;;;;7.10;4.50;;;;;;;7.42;100.00;101151.59;5089261;28;20054;-69
2022/12/05 08:51:33;;;;;;;7.75;4.75;;;;;;;7.40;100.00;101153.50;5087332;28;20024;-68
2022/12/05 08:54:01;;;;;;;6.70;4.60;;;;;;;7.30;100.00;101131.88;5089722;28;20102;-69
2022/12/05 08:56:26;;;;;;;7.70;4.72;;;;;;;7.31;100.00;101124.69;5090119;28;20114;-69
2022/12/05 08:58:52;;;;;;;7.40;4.60;;;;;;;7.48;100.00;101146.72;5090116;28;20232;-69
2022/12/05 09:01:19;;;;;;;9.32;4.68;;;;;;;7.50;100.00;101144.84;5089989;28;20024;-69
2022/12/05 09:03:46;;;;;;;7.07;4.80;;;;;;;7.38;100.00;101107.38;5089897;28;20035;-69
2022/12/05 09:06:14;;;;;;;8.35;5.38;;;;;;;7.62;100.00;101138.75;5089671;28;20028;-69
2022/12/05 09:08:41;;;;;;;6.75;4.97;;;;;;;7.56;100.00;101122.22;5088839;28;20538;-69
2022/12/05 09:11:09;;;;;;;6.88;4.63;;;;;;;7.50;100.00;101104.78;5088886;28;20134;-69
2022/12/05 09:13:35;;;;;;;5.88;4.13;;;;;;;7.75;99.84;101139.69;5089559;28;20059;-69
2022/12/05 09:16:10;;;;;;;5.88;4.05;;;;;;;7.81;99.53;101144.63;5088358;28;20047;-72
2022/12/05 09:18:36;;;;;;;8.32;4.60;;;;;;;7.73;99.02;101122.03;5088671;28;20030;-72
2022/12/05 09:21:10;;;;;;;6.95;3.83;;;;;;;7.86;99.04;101133.63;5090349;28;20099;-72
2022/12/05 09:23:36;;;;;;;5.68;4.32;;;;;;;7.82;98.64;101119.66;5089975;28;20487;-72
2022/12/05 09:26:04;;;;;;;5.22;4.15;;;;;;;7.84;97.74;101124.88;5090144;28;20472;-72
2022/12/05 09:28:30;;;;;;;5.15;4.03;;;;;;;7.88;97.73;101129.06;5089989;28;20026;-72
2022/12/05 09:31:03;;;;;;;8.40;4.35;;;;;;;7.97;97.78;101144.50;5092492;28;20020;-72
2022/12/05 09:33:31;;;;;;;7.47;4.65;;;;;;;8.05;97.86;101147.53;5089599;28;20523;-72
2022/12/05 09:35:56;;;;;;;6.13;4.47;;;;;;;7.99;97.25;101127.41;5090315;28;20059;-72
2022/12/05 09:38:22;;;;;;;7.68;4.78;;;;;;;8.04;96.87;101144.03;5090134;28;20079;-72
2022/12/05 09:44:20;;;;;;;5.65;4.00;;;;;;;8.06;96.90;101141.25;5080696;28;20063;-71
2022/12/05 09:47:01;;;;;;;7.13;4.50;;;;;;;8.06;97.12;101133.25;5088441;28;20074;-72
2022/12/05 09:49:29;;;;;;;7.75;4.13;;;;;;;8.04;97.62;101121.78;5085564;28;20609;-72
2022/12/05 09:51:57;;;;;;;6.65;4.90;;;;;;;8.04;97.88;101132.47;5088095;28;20123;-72
2022/12/05 09:54:24;;;;;;;6.85;5.18;;;;;;;8.20;96.83;101149.22;5090074;28;20028;-72
2022/12/05 09:56:51;;;;;;;7.57;5.13;;;;;;;8.18;97.02;101143.97;5090105;28;20036;-72
2022/12/05 09:59:19;;;;;;;7.32;5.03;;;;;;;8.19;96.93;101150.19;5088767;28;20381;-72
2022/12/05 10:02:15;;;;;;;6.68;4.90;;;;;;;8.26;96.46;101154.22;5089410;28;20128;-72
2022/12/05 10:04:49;;;;;;;6.57;4.80;;;;;;;8.26;96.32;101146.19;5089267;28;20028;-72
2022/12/05 10:07:29;;;;;;;;;;;;;;;8.26;97.09;101149.72;5090090;28;20028;-72
2022/12/05 10:10:07;;;;;;;7.03;4.82;;;;;;;8.31;97.17;101138.72;5089456;28;19943;-72
2022/12/05 10:12:44;;;;;;;7.68;5.30;;;;;;;8.31;96.98;101131.56;5088179;28;20063;-72
2022/12/05 10:15:10;;;;;;;9.45;4.95;;;;;;;8.34;96.27;101130.50;5089700;28;20040;-73
2022/12/05 10:17:43;;;;;;;12.93;5.70;;;;;;;8.33;96.02;101120.78;5089266;28;20085;-71
2022/12/05 10:20:12;;;;;;;8.23;5.00;;;;;;;8.43;96.34;101117.41;5087674;28;20126;-72
2022/12/05 10:22:47;;;;;;;8.90;5.15;;;;;;;8.44;96.17;101118.25;5089168;28;20541;-72
2022/12/05 10:25:18;;;;;;;6.90;5.35;;;;;;;8.44;96.68;101103.06;5088540;28;20139;-72
2022/12/05 10:27:50;;;;;;;7.28;4.97;;;;;;;8.51;96.58;101109.72;5103413;28;20040;-72
2022/12/05 10:30:26;;;;;;;7.68;5.53;;;;;;;8.54;96.26;101108.66;5086904;28;20036;-68
2022/12/05 10:33:00;;;;;;;6.50;4.95;;;;;;;8.57;96.09;101109.31;5088009;28;20027;-69
2022/12/05 10:35:28;;;;;;;9.05;5.15;;;;;;;8.62;95.95;101106.34;5087862;28;20111;-69
2022/12/05 10:38:01;;;;;;;7.30;5.13;;;;;;;8.65;95.39;101096.28;5087311;28;20027;-68
2022/12/05 10:40:35;;;;;;;8.53;4.77;;;;;;;8.69;94.86;101087.09;5091933;28;20029;-69
2022/12/05 10:43:01;;;;;;;7.75;5.40;;;;;;;8.69;95.18;101084.44;5085432;28;20047;-69
2022/12/05 10:45:26;;;;;;;10.68;5.30;;;;;;;8.67;95.05;101070.28;5105806;27;20012;-69
2022/12/05 10:47:57;;;;;;;8.65;5.32;;;;;;;8.72;94.77;101069.97;5087603;28;20024;-69
2022/12/05 10:50:24;;;;;;;9.27;5.57;;;;;;;8.83;95.00;101078.13;5087480;28;20726;-69
2022/12/05 10:52:52;;;;;;;9.35;5.60;;;;;;;8.87;94.93;101063.59;5088120;28;20023;-69
2022/12/05 10:55:18;;;;;;;6.90;5.70;;;;;;;8.93;94.27;101061.34;5084305;28;20032;-69
2022/12/05 10:58:07;;;;;;;8.52;5.38;;;;;;;8.98;94.15;101059.22;5086993;28;20545;-69
2022/12/05 11:00:32;;;;;;;8.27;5.38;;;;;;;9.00;93.49;101065.28;5099519;28;20039;-69
2022/12/05 11:03:02;;;;;;;9.40;5.72;;;;;;;8.92;93.28;101040.03;5086239;28;20020;-69
2022/12/05 11:05:30;;;;;;;9.85;5.68;;;;;;;8.96;92.35;101036.19;5087191;28;20741;-69
2022/12/05 11:07:58;;;;;;;9.60;5.93;;;;;;;9.13;92.06;101054.63;5086756;28;20028;-69
2022/12/05 11:10:36;;;;;;;10.68;6.43;;;;;;;9.10;92.00;101044.13;5090327;28;20638;-70
2022/12/05 11:13:14;;;;;;;8.00;5.90;;;;;;;9.23;91.65;101053.00;5088339;28;20047;-69
2022/12/05 11:15:45;;;;;;;7.07;5.13;;;;;;;9.26;91.28;101044.75;5087670;28;20031;-70
2022/12/05 11:18:40;;;;;;;8.35;5.40;;;;;;;9.28;90.67;101040.13;5091160;28;20067;-69
2022/12/05 11:21:11;;;;;;;8.77;4.82;;;;;;;9.35;90.60;101044.06;5083466;28;20035;-69
2022/12/05 11:23:38;;;;;;;11.68;5.45;;;;;;;9.41;90.74;101035.63;5088738;28;20028;-69
2022/12/05 11:26:34;;;;;;;8.07;5.97;;;;;;;9.50;89.54;101034.97;5083558;28;20035;-69
2022/12/05 11:29:00;;;;;;;9.48;5.40;;;;;;;9.35;89.12;101017.31;5099871;28;20028;-69
2022/12/05 11:31:28;;;;;;;8.18;5.15;;;;;;;9.52;89.13;101041.06;5085820;28;20039;-69
2022/12/05 11:34:16;;;;;;;7.25;5.20;;;;;;;9.59;89.41;101042.34;5085511;28;20317;-69
2022/12/05 11:37:00;;;;;;;11.43;5.40;;;;;;;9.57;88.98;101019.31;5090202;28;20055;-69
2022/12/05 11:39:26;;;;;;;9.27;5.97;;;;;;;9.61;89.15;101029.66;5095581;28;20031;-69
2022/12/05 11:42:18;;;;;;;9.75;5.40;;;;;;;9.72;88.67;101036.94;5093847;28;20572;-72
2022/12/05 11:45:08;;;;;;;9.30;6.32;;;;;;;9.78;87.13;101045.41;5092124;28;20038;-72
2022/12/05 11:48:15;;;;;;;7.13;5.78;;;;;;;9.70;87.88;101034.38;5088462;28;20028;-72
2022/12/05 11:50:54;;;;;;;8.20;5.72;;;;;;;9.73;87.33;101038.63;5025009;28;20116;-72